Latest Weather Observations for Daly Waters

IDD60801

Issued at 1:02 pm CST Friday 27 March 2015 (issued every 30 minutes, with the page automatically refreshed every 10 minutes)

About weather observations | Map of weather stations | Latest weather observations for NT | Other Formats
Station Details ID: 014626 Name: DALY WATERS AIRSTRIP Lat: -16.26 Lon: 133.38 Height: 209.84 m
Data from the previous 72 hours. | See also: Recent months at Daly Waters
Date/Time
CST
Temp
°C
App
Temp
°C
Dew
Point
Rel
Hum
%
Delta-T
°C
Wind Press
QNH
hPa
Press
MSL
hPa
Rain
since 9 am
mm
Dir
 
Spd
km/h
Gust
km/h
Spd
kts
Gust
kts
27/01:00pm 33.3 31.0 10.6 25 13.3 E 13 20 7 11 1015.4 1013.9 0.2
27/12:30pm 32.5 29.2 8.0 22 13.7 E 15 24 8 13 1015.9 1014.4 0.2
27/12:00pm 32.2 28.6 8.4 23 13.4 E 17 24 9 13 1016.4 1015.0 0.2
27/11:30am 32.0 28.9 8.9 24 13.1 ESE 15 26 8 14 1016.8 1015.4 0.2
27/11:00am 30.9 27.7 8.6 25 12.5 ESE 15 24 8 13 1017.2 1015.8 0.2
27/10:30am 29.9 26.5 7.8 25 12.1 ESE 15 26 8 14 1017.5 1016.1 0.2
27/10:00am 29.5 26.1 9.1 28 11.4 ESE 17 28 9 15 1017.6 1016.2 0.2
27/09:30am 29.0 25.7 9.7 30 10.9 ESE 17 30 9 16 1017.8 1016.4 0.2
27/09:00am 28.0 24.5 8.8 30 10.6 ESE 17 30 9 16 1017.8 1016.4 0.6
27/08:30am 26.9 26.0 12.5 40 8.4 ESE 9 19 5 10 1017.4 1016.0 0.6
27/08:00am 24.9 25.7 17.4 63 4.7 SE 9 15 5 8 1016.9 1015.5 0.6
27/07:30am 23.9 27.3 21.6 87 1.5 SE 6 9 3 5 1016.4 1015.0 0.6
27/07:00am 23.2 27.3 21.5 90 1.1 SE 2 4 1 2 1016.2 1014.7 0.6
27/06:30am 23.1 26.8 21.4 90 1.1 ESE 4 7 2 4 1016.2 1014.7 0.6
27/06:00am 23.2 26.5 21.5 90 1.1 SE 6 7 3 4 1016.1 1014.6 0.6
27/05:30am 23.2 27.2 21.3 89 1.3 ESE 2 4 1 2 1016.0 1014.5 0.6
27/05:00am 23.3 27.0 21.4 89 1.3 ESE 4 4 2 2 1015.7 1014.2 0.6
27/04:30am 23.5 27.5 21.4 88 1.4 SE 2 4 1 2 1015.8 1014.3 0.6
27/04:00am 23.6 27.4 21.7 89 1.3 SE 4 4 2 2 1016.0 1014.5 0.6
27/03:30am 23.7 28.3 21.8 89 1.3 CALM 0 0 0 0 1015.9 1014.4 0.6
27/03:00am 23.7 28.2 21.6 88 1.4 CALM 0 2 0 1 1016.0 1014.5 0.6
27/02:30am 23.8 28.5 21.9 89 1.3 CALM 0 0 0 0 1016.4 1015.0 0.6
27/02:00am 23.8 28.3 21.5 87 1.5 CALM 0 0 0 0 1016.6 1015.2 0.6
27/01:30am 23.8 28.3 21.5 87 1.5 CALM 0 0 0 0 1017.1 1015.7 0.6
27/01:00am 23.7 27.4 21.4 87 1.5 SE 4 7 2 4 1017.2 1015.8 0.6
27/12:30am 23.7 28.1 21.4 87 1.5 CALM 0 4 0 2 1017.4 1016.0 0.6
27/12:00am 23.7 27.3 21.2 86 1.7 NE 4 9 2 5 1017.3 1015.9 0.6
 
Date/Time
CST
Temp
°C
App
Temp
°C
Dew
Point
Rel
Hum
%
Delta-T
°C
Wind Press
QNH
hPa
Press
MSL
hPa
Rain
since 9 am
mm
Dir
 
Spd
km/h
Gust
km/h
Spd
kts
Gust
kts
26/11:30pm 23.8 28.3 21.5 87 1.5 CALM 0 0 0 0 1017.5 1016.1 0.6
26/11:00pm 23.6 27.9 21.1 86 1.7 CALM 0 0 0 0 1017.7 1016.3 0.6
26/10:30pm 23.6 27.6 21.3 87 1.5 ESE 2 4 1 2 1017.8 1016.4 0.6
26/10:00pm 23.6 26.5 20.7 84 1.9 ENE 6 9 3 5 1017.7 1016.3 0.6
26/09:30pm 23.8 26.1 20.7 83 2.0 NE 9 15 5 8 1017.6 1016.2 0.6
26/09:00pm 24.2 26.0 21.1 83 2.1 NE 13 22 7 12 1017.4 1016.0 0.4
26/08:30pm 24.2 25.7 21.3 84 1.9 NNE 15 20 8 11 1017.0 1015.6 0.4
26/08:00pm 24.7 27.9 21.2 81 2.3 ENE 6 15 3 8 1016.3 1014.9 0.4
26/07:30pm 24.8 28.0 21.3 81 2.3 ENE 6 9 3 5 1015.7 1014.2 0.2
26/07:00pm 25.2 27.0 21.1 78 2.7 NNE 13 20 7 11 1015.3 1013.8 0.2
26/06:30pm 27.7 30.2 21.0 67 4.5 E 9 35 5 19 1014.6 1013.1 0.2
26/06:00pm 28.1 33.5 23.2 74 3.4 CALM 0 4 0 2 1013.6 1012.1 0.2
26/05:30pm 30.7 32.3 20.0 52 7.1 SE 11 17 6 9 1013.3 1011.9 0.2
26/05:00pm 31.2 32.6 19.5 49 7.7 ESE 11 22 6 12 1013.0 1011.6 0.2
26/04:30pm 32.9 34.9 20.8 49 8.2 ESE 11 20 6 11 1012.9 1011.5 0.2
26/04:00pm 32.2 34.5 21.4 53 7.3 SE 11 20 6 11 1012.8 1011.4 0.2
26/03:30pm 31.1 32.3 20.7 54 7.0 SE 15 26 8 14 1013.0 1011.6 0.2
26/03:00pm 30.5 31.3 19.8 52 7.1 SE 15 24 8 13 1013.1 1011.7 0.2
26/02:30pm 31.5 34.1 20.4 51 7.4 ESE 7 15 4 8 1013.6 1012.1 0.2
26/02:00pm 31.8 33.8 20.7 51 7.5 E 11 20 6 11 1014.0 1012.5 0.2
26/01:30pm 31.1 33.4 20.7 54 7.0 E 9 17 5 9 1014.6 1013.1 0.2
26/01:00pm 30.3 32.3 20.8 56 6.4 ENE 11 19 6 10 1015.2 1013.7 0.2
26/12:30pm 29.1 30.5 21.1 62 5.4 ENE 15 20 8 11 1015.8 1014.3 0.2
26/12:00pm 28.9 30.2 20.9 62 5.3 E 15 22 8 12 1016.6 1015.2 0.2
26/11:30am 28.6 31.2 21.9 67 4.5 ESE 11 20 6 11 1016.9 1015.5 0.0
26/11:00am 27.3 30.1 22.3 74 3.4 ESE 11 15 6 8 1017.4 1016.0 0.0
26/10:30am 26.1 28.6 21.7 77 3.0 ESE 11 17 6 9 1017.7 1016.3 0.0
26/10:00am 25.6 28.8 22.3 82 2.2 ESE 9 17 5 9 1017.7 1016.3 0.0
26/09:30am 25.2 29.1 22.5 85 1.8 E 6 9 3 5 1017.8 1016.4 0.0
26/09:00am 24.5 28.0 22.2 87 1.5 E 7 11 4 6 1017.6 1016.2 13.6
26/08:30am 23.8 26.7 21.7 88 1.4 E 9 13 5 7 1017.4 1016.0 13.6
26/08:00am 23.3 26.5 21.7 91 1.1 E 7 13 4 7 1017.0 1015.6 13.6
26/07:30am 22.8 26.0 21.3 91 1.0 ESE 6 11 3 6 1016.4 1015.0 13.6
26/07:00am 22.7 25.9 21.2 91 1.0 ESE 6 11 3 6 1016.1 1014.6 13.6
26/06:30am 22.7 25.9 21.2 91 1.0 ESE 6 9 3 5 1015.8 1014.3 13.6
26/06:00am 22.6 25.5 21.1 91 1.0 ESE 7 11 4 6 1015.5 1014.0 12.8
26/05:30am 22.6 25.5 21.1 91 1.0 E 7 11 4 6 1015.3 1013.8 11.6
26/05:00am 22.6 25.5 21.1 91 1.0 E 7 11 4 6 1014.9 1013.4 11.2
26/04:30am 22.6 25.4 20.9 90 1.1 ESE 7 11 4 6 1014.7 1013.2 10.8
26/04:00am 22.6 25.6 20.9 90 1.1 ESE 6 7 3 4 1014.5 1013.0 9.4
26/03:30am 22.6 25.6 20.9 90 1.1 ESE 6 13 3 7 1014.5 1013.0 9.0
26/03:00am 22.6 25.6 20.9 90 1.1 ESE 6 7 3 4 1014.9 1013.4 8.8
26/02:30am 22.6 25.6 20.9 90 1.1 ESE 6 11 3 6 1014.9 1013.4 8.8
26/02:00am 22.6 25.6 20.9 90 1.1 ESE 6 9 3 5 1014.8 1013.3 8.6
26/01:30am 22.6 25.0 20.9 90 1.1 ESE 9 13 5 7 1014.9 1013.4 7.6
26/01:00am 22.6 25.3 20.7 89 1.2 ESE 7 13 4 7 1015.1 1013.6 6.0
26/12:30am 22.8 25.5 20.7 88 1.4 ESE 7 15 4 8 1015.3 1013.8 3.8
26/12:00am 22.9 25.7 20.8 88 1.4 ESE 7 11 4 6 1015.6 1014.1 3.0
 
Date/Time
CST
Temp
°C
App
Temp
°C
Dew
Point
Rel
Hum
%
Delta-T
°C
Wind Press
QNH
hPa
Press
MSL
hPa
Rain
since 9 am
mm
Dir
 
Spd
km/h
Gust
km/h
Spd
kts
Gust
kts
25/11:30pm 22.9 25.9 20.8 88 1.4 ESE 6 11 3 6 1015.7 1014.2 3.0
25/11:00pm 23.0 26.4 20.9 88 1.4 ESE 4 7 2 4 1015.7 1014.2 3.0
25/10:30pm 23.0 26.0 20.9 88 1.4 SE 6 9 3 5 1015.8 1014.3 3.0
25/10:00pm 23.3 26.9 21.2 88 1.4 ESE 4 6 2 3 1015.6 1014.1 2.8
25/09:30pm 23.4 27.4 21.3 88 1.4 ESE 2 4 1 2 1015.3 1013.8 2.4
25/09:00pm 23.4 26.3 20.7 85 1.8 SE 6 11 3 6 1015.1 1013.6 1.8
25/08:30pm 23.6 25.8 20.3 82 2.2 ESE 9 15 5 8 1014.8 1013.3 1.6
25/08:00pm 25.3 26.9 19.9 72 3.5 E 11 20 6 11 1014.2 1012.7 1.4
25/07:30pm 25.4 26.9 19.8 71 3.7 ESE 11 19 6 10 1013.7 1012.2 1.4
25/07:00pm 25.7 26.9 19.8 70 3.9 ESE 13 22 7 12 1013.0 1011.6 1.4
25/06:30pm 25.7 27.1 20.3 72 3.6 ESE 13 20 7 11 1012.8 1011.4 1.4
25/06:00pm 26.3 27.3 19.4 66 4.5 SE 13 22 7 12 1012.2 1010.8 1.4
25/05:30pm 26.9 28.2 19.3 63 4.9 ESE 11 20 6 11 1011.9 1010.4 1.4
25/05:00pm 26.8 28.5 20.2 67 4.3 SE 11 17 6 9 1012.0 1010.6 1.4
25/04:30pm 26.5 29.3 20.8 71 3.8 ESE 7 11 4 6 1012.0 1010.6 1.4
25/04:00pm 26.2 28.1 20.5 71 3.8 SE 11 19 6 10 1011.8 1010.3 1.4
25/03:30pm 25.9 27.9 20.7 73 3.4 ESE 11 20 6 11 1011.6 1010.1 1.4
25/03:00pm 25.5 26.7 20.7 75 3.2 ESE 15 24 8 13 1011.7 1010.2 1.4
25/02:30pm 25.7 26.5 20.7 74 3.3 ESE 17 26 9 14 1012.2 1010.8 1.2
25/02:00pm 25.3 28.0 22.2 83 2.1 ESE 11 24 6 13 1012.9 1011.5 1.2
25/01:30pm 26.9 29.7 22.3 76 3.1 E 11 17 6 9 1013.0 1011.6 1.2
25/01:00pm 26.9 29.7 21.6 72 3.6 ESE 9 17 5 9 1013.4 1012.0 1.2
25/12:30pm 26.4 29.3 22.5 79 2.6 E 11 26 6 14 1013.7 1012.2 1.2
25/12:00pm 25.9 29.7 22.4 81 2.4 E 6 11 3 6 1014.1 1012.6 0.8
25/11:30am 26.0 28.7 21.4 76 3.1 E 9 17 5 9 1014.3 1012.8 0.4
25/11:00am 26.0 27.1 21.2 75 3.2 E 17 26 9 14 1014.5 1013.0 0.2
25/10:30am 26.6 28.7 22.4 78 2.9 E 15 28 8 15 1014.3 1012.8 0.0
25/10:00am 25.4 28.3 22.5 84 2.0 ESE 11 17 6 9 1014.5 1013.0 0.0
25/09:30am 25.2 27.8 21.9 82 2.2 E 11 19 6 10 1014.3 1012.8 0.0
25/09:00am 24.7 27.6 21.8 84 1.9 E 9 19 5 10 1014.2 1012.7 11.2
25/08:30am 24.5 27.8 21.8 85 1.8 ESE 7 17 4 9 1013.9 1012.4 11.2
25/08:00am 24.0 26.9 21.7 87 1.5 ESE 9 15 5 8 1013.8 1012.3 11.2
25/07:30am 23.5 25.8 21.4 88 1.4 ESE 11 17 6 9 1013.1 1011.7 11.2
25/07:00am 23.3 25.5 21.2 88 1.4 E 11 17 6 9 1013.0 1011.6 11.2
25/06:30am 22.7 25.7 20.8 89 1.2 E 6 9 3 5 1012.8 1011.4 11.2
25/06:00am 22.6 25.3 20.7 89 1.2 E 7 11 4 6 1012.6 1011.2 11.0
25/05:30am 22.3 25.0 20.2 88 1.4 E 6 9 3 5 1012.5 1011.1 11.0
25/05:00am 22.1 24.7 20.0 88 1.4 ESE 6 7 3 4 1012.5 1011.1 11.0
25/04:30am 22.1 24.7 20.0 88 1.4 ESE 6 11 3 6 1012.4 1011.0 10.8
25/04:00am 22.0 25.0 20.1 89 1.2 ESE 4 6 2 3 1012.3 1010.9 10.8
25/03:30am 21.8 24.2 19.7 88 1.4 ESE 6 7 3 4 1012.4 1011.0 10.8
25/03:00am 21.8 24.1 19.4 86 1.5 ESE 6 9 3 5 1012.6 1011.2 10.8
25/02:30am 21.7 23.4 19.4 87 1.5 ESE 9 15 5 8 1013.0 1011.6 10.8
25/02:00am 21.4 23.5 19.3 88 1.3 ESE 7 11 4 6 1013.3 1011.9 10.8
25/01:30am 21.2 22.7 18.9 87 1.5 ESE 9 20 5 11 1013.9 1012.4 10.8
25/01:00am 21.6 23.3 18.4 82 2.0 SE 7 13 4 7 1014.0 1012.5 9.2
25/12:30am 21.6 23.1 18.0 80 2.3 SE 7 15 4 8 1014.3 1012.8 9.2
25/12:00am 22.1 22.8 17.9 77 2.6 ESE 11 22 6 12 1014.6 1013.1 9.2
 
Date/Time
CST
Temp
°C
App
Temp
°C
Dew
Point
Rel
Hum
%
Delta-T
°C
Wind Press
QNH
hPa
Press
MSL
hPa
Rain
since 9 am
mm
Dir
 
Spd
km/h
Gust
km/h
Spd
kts
Gust
kts
24/11:30pm 21.9 22.9 17.7 77 2.6 E 9 17 5 9 1015.0 1013.5 9.2
24/11:00pm 21.9 22.4 17.5 76 2.7 E 11 19 6 10 1015.4 1013.9 9.0
24/10:30pm 21.9 20.6 18.1 79 2.4 E 22 44 12 24 1015.7 1014.2 9.0
24/10:00pm 22.7 20.9 19.5 82 2.1 E 28 54 15 29 1015.7 1014.2 9.0
24/09:54pm 22.8 24.0 20.7 88 1.4 ESE 15 54 8 29 1015.5 1014.0 9.0
24/09:30pm 22.5 24.8 20.6 89 1.2 SE 9 15 5 8 1014.5 1013.0 9.0
24/09:00pm 22.6 26.8 20.9 90 1.1 CALM 0 4 0 2 1014.3 1012.8 8.6
24/08:30pm 22.5 25.8 20.8 90 1.1 E 4 6 2 3 1014.2 1012.7 8.4
24/08:00pm 22.2 25.4 20.5 90 1.1 ESE 4 7 2 4 1014.1 1012.6 8.2
24/07:30pm 22.2 24.8 20.5 90 1.1 SSE 7 11 4 6 1013.3 1011.9 8.2
24/07:00pm 22.1 24.3 20.4 90 1.1 ESE 9 13 5 7 1014.0 1012.5 7.8
24/06:30pm 22.0 24.5 20.3 90 1.1 ENE 7 15 4 8 1013.8 1012.3 6.4
24/06:00pm 22.8 24.1 20.1 85 1.8 E 13 26 7 14 1013.2 1011.8 1.4
24/05:30pm 22.4 24.1 20.1 87 1.5 SSE 11 17 6 9 1011.6 1010.1 1.4
24/05:00pm 22.7 24.8 20.2 86 1.6 SSE 9 15 5 8 1012.0 1010.6 1.2
24/04:30pm 23.8 25.6 20.3 81 2.3 ESE 11 19 6 10 1011.5 1010.0 0.8
24/04:00pm 24.9 26.1 20.6 77 2.8 SE 15 24 8 13 1011.2 1009.7 0.8
24/03:30pm 25.3 25.9 19.4 70 3.8 E 15 35 8 19 1010.3 1008.8 0.8
24/03:00pm 29.1 32.5 21.6 64 5.1 SE 6 11 3 6 1010.0 1008.5 0.2
24/02:30pm 29.9 32.8 20.7 57 6.2 ESE 6 9 3 5 1010.2 1008.7 0.2
24/02:00pm 30.0 32.2 20.5 56 6.3 SE 9 19 5 10 1010.9 1009.4 0.2
24/01:30pm 29.8 31.3 20.6 57 6.1 ESE 13 17 7 9 1011.7 1010.2 0.2

Other Formats:

Comma delimited format used in spreadsheet applications
http://www.bom.gov.au/fwo/IDD60801/IDD60801.94234.axf

JavaScript Object Notation format (JSON) in row-major order
http://www.bom.gov.au/fwo/IDD60801/IDD60801.94234.json